createdAt,value
2023-02-11T00:01:07.258Z,31.15
2023-02-11T00:03:34.019Z,29.17
2023-02-11T00:06:02.755Z,31.33
2023-02-11T00:08:29.413Z,32.78
2023-02-11T00:10:57.509Z,31.35
2023-02-11T00:13:25.534Z,31.05
2023-02-11T00:15:52.707Z,34.05
2023-02-11T00:18:19.427Z,35.20
2023-02-11T00:20:46.387Z,35.30
2023-02-11T00:23:13.355Z,33.08
2023-02-11T00:25:41.924Z,34.97
2023-02-11T00:28:09.639Z,34.90
2023-02-11T00:30:36.953Z,35.72
2023-02-11T00:33:04.095Z,35.38
2023-02-11T00:35:30.732Z,39.33
2023-02-11T00:37:57.497Z,35.75
2023-02-11T00:40:24.553Z,39.28
2023-02-11T00:42:51.271Z,39.03
2023-02-11T00:45:17.889Z,36.95
2023-02-11T00:47:44.541Z,37.97
2023-02-11T00:50:11.181Z,37.60
2023-02-11T00:52:37.913Z,37.75
2023-02-11T00:55:04.886Z,37.85
2023-02-11T00:57:31.613Z,37.72
2023-02-11T00:59:58.223Z,37.40
2023-02-11T01:02:24.878Z,37.33
2023-02-11T01:04:51.629Z,39.92
2023-02-11T01:07:18.264Z,37.75
2023-02-11T01:09:44.895Z,36.63
2023-02-11T01:12:11.576Z,37.35
2023-02-11T01:14:38.315Z,36.47
2023-02-11T01:17:06.453Z,41.10
2023-02-11T01:19:33.120Z,36.13
2023-02-11T01:21:59.899Z,38.50
2023-02-11T01:24:26.624Z,38.58
2023-02-11T01:26:53.246Z,38.35
2023-02-11T01:29:20.163Z,39.60
2023-02-11T01:31:46.898Z,40.13
2023-02-11T01:34:14.525Z,39.35
2023-02-11T01:36:41.332Z,38.65
2023-02-11T01:39:08.800Z,39.03
2023-02-11T01:41:36.353Z,37.97
2023-02-11T01:44:26.000Z,39.42
2023-02-11T01:49:30.687Z,38.17
2023-02-11T01:52:15.015Z,38.90
2023-02-11T01:55:11.353Z,44.13
2023-02-11T01:57:41.478Z,43.45
2023-02-11T02:00:15.683Z,42.83
2023-02-11T02:03:00.146Z,44.65
2023-02-11T02:05:57.576Z,45.15
2023-02-11T02:08:38.379Z,43.22
2023-02-11T02:11:05.154Z,44.20
2023-02-11T02:13:33.562Z,44.25
2023-02-11T02:16:09.304Z,43.40
2023-02-11T02:19:05.654Z,43.75
2023-02-11T02:21:44.565Z,44.20
2023-02-11T02:24:27.722Z,46.88
2023-02-11T02:27:02.883Z,45.03
2023-02-11T02:29:57.457Z,45.83
2023-02-11T02:32:37.789Z,45.53
2023-02-11T02:35:15.772Z,45.35
2023-02-11T02:37:55.314Z,44.90
2023-02-11T02:40:34.988Z,43.90
2023-02-11T02:45:29.698Z,45.90
2023-02-11T02:47:56.646Z,47.28
2023-02-11T02:50:30.389Z,48.63
2023-02-11T02:53:00.087Z,48.38
2023-02-11T02:58:48.264Z,46.75
2023-02-11T03:01:21.759Z,47.38
2023-02-11T03:03:53.237Z,47.45
2023-02-11T03:06:34.449Z,49.58
2023-02-11T03:09:25.552Z,47.22
2023-02-11T03:11:52.619Z,47.03
2023-02-11T03:14:20.889Z,46.15
2023-02-11T03:16:50.185Z,50.15
2023-02-11T03:19:23.801Z,48.15
2023-02-11T03:21:52.223Z,47.67
2023-02-11T03:24:25.770Z,49.90
2023-02-11T03:26:55.885Z,49.95
2023-02-11T03:29:34.826Z,49.47
2023-02-11T03:32:16.617Z,46.95
2023-02-11T03:34:58.505Z,47.92
2023-02-11T03:37:57.718Z,50.42
2023-02-11T03:40:32.540Z,47.88
2023-02-11T03:43:17.762Z,51.47
2023-02-11T03:45:47.170Z,45.40
2023-02-11T03:48:25.840Z,46.60
2023-02-11T03:50:54.112Z,48.20
2023-02-11T03:53:22.810Z,48.85
2023-02-11T03:55:51.409Z,47.58
2023-02-11T03:58:18.326Z,49.80
2023-02-11T04:00:45.279Z,48.70
2023-02-11T04:03:13.084Z,53.10
2023-02-11T04:05:40.644Z,51.35
2023-02-11T04:08:07.749Z,51.28
2023-02-11T04:10:34.352Z,55.65
2023-02-11T04:13:01.033Z,49.90
2023-02-11T04:15:27.697Z,51.72
2023-02-11T04:17:54.408Z,52.65
2023-02-11T04:20:21.269Z,51.67
2023-02-11T04:22:47.866Z,53.63
2023-02-11T04:25:14.491Z,54.92
2023-02-11T04:27:41.069Z,54.08
2023-02-11T04:30:10.576Z,54.50
2023-02-11T04:32:37.199Z,51.97
2023-02-11T04:35:04.187Z,54.80
2023-02-11T04:37:30.838Z,54.58
2023-02-11T04:39:57.600Z,51.88
2023-02-11T04:42:24.559Z,53.28
2023-02-11T04:44:51.171Z,55.47
2023-02-11T04:47:17.815Z,55.40
2023-02-11T04:49:44.660Z,56.97
2023-02-11T04:52:11.341Z,54.63
2023-02-11T04:54:38.053Z,53.40
2023-02-11T04:57:04.817Z,54.55
2023-02-11T04:59:31.466Z,53.83
2023-02-11T05:01:58.212Z,53.00
2023-02-11T05:04:24.886Z,54.95
2023-02-11T05:06:51.584Z,54.78
2023-02-11T05:09:18.588Z,55.72
2023-02-11T05:11:45.174Z,55.85
2023-02-11T05:14:11.835Z,53.25
2023-02-11T05:16:38.548Z,54.40
2023-02-11T05:19:05.346Z,55.05
2023-02-11T05:21:32.012Z,50.50
2023-02-11T05:23:58.697Z,52.17
2023-02-11T05:26:26.409Z,53.92
2023-02-11T05:28:53.139Z,56.03
2023-02-11T05:31:19.778Z,56.63
2023-02-11T05:33:46.386Z,54.38
2023-02-11T05:36:13.802Z,57.30
2023-02-11T05:38:42.366Z,55.85
2023-02-11T05:41:10.347Z,52.92
2023-02-11T05:43:37.141Z,50.85
2023-02-11T05:46:04.792Z,50.92
2023-02-11T05:48:31.848Z,53.40
2023-02-11T05:50:58.545Z,53.13
2023-02-11T05:53:25.221Z,52.40
2023-02-11T05:55:52.106Z,55.50
2023-02-11T05:58:18.968Z,55.60
2023-02-11T06:00:45.649Z,52.72
2023-02-11T06:03:12.244Z,55.67
2023-02-11T06:05:38.972Z,50.78
2023-02-11T06:08:05.638Z,52.75
2023-02-11T06:10:32.255Z,54.40
2023-02-11T06:12:58.846Z,51.33
2023-02-11T06:15:25.485Z,49.67
2023-02-11T06:17:52.603Z,48.97
2023-02-11T06:20:19.424Z,51.17
2023-02-11T06:22:46.349Z,51.72
2023-02-11T06:25:13.649Z,53.38
2023-02-11T06:27:40.337Z,49.70
2023-02-11T06:30:08.206Z,50.97
2023-02-11T06:32:43.829Z,52.10
2023-02-11T06:35:12.350Z,53.92
2023-02-11T06:37:40.119Z,52.28
2023-02-11T06:40:07.025Z,53.90
2023-02-11T06:42:34.555Z,51.45
2023-02-11T06:45:01.220Z,54.13
2023-02-11T06:47:27.845Z,54.50
2023-02-11T06:49:54.442Z,54.83
2023-02-11T06:52:21.185Z,50.72
2023-02-11T06:54:47.810Z,55.45
2023-02-11T06:57:14.486Z,52.85
2023-02-11T06:59:41.304Z,55.28
2023-02-11T07:02:10.471Z,55.55
2023-02-11T07:04:37.155Z,53.90
2023-02-11T07:07:03.913Z,55.90
2023-02-11T07:09:30.508Z,54.97
2023-02-11T07:11:57.134Z,55.40
2023-02-11T07:14:23.818Z,54.65
2023-02-11T07:16:50.445Z,58.90
2023-02-11T07:19:17.311Z,53.38
2023-02-11T07:21:43.932Z,52.38
2023-02-11T07:24:11.488Z,52.25
2023-02-11T07:26:38.701Z,51.53
2023-02-11T07:29:05.417Z,52.03
2023-02-11T07:31:32.994Z,50.67
2023-02-11T07:34:01.580Z,50.28
2023-02-11T07:36:29.753Z,51.00
2023-02-11T07:38:56.429Z,51.15
2023-02-11T07:41:25.142Z,51.65
2023-02-11T07:43:51.861Z,50.30
2023-02-11T07:46:21.240Z,50.42
2023-02-11T07:48:48.387Z,50.20
2023-02-11T07:51:21.289Z,48.70
2023-02-11T07:53:47.956Z,50.90
2023-02-11T07:56:16.312Z,53.03
2023-02-11T07:58:43.385Z,50.47
2023-02-11T08:01:18.333Z,49.95
2023-02-11T08:03:45.805Z,48.88
2023-02-11T08:06:16.529Z,47.53
2023-02-11T08:08:43.451Z,50.38
2023-02-11T08:11:15.377Z,45.40
2023-02-11T08:13:42.525Z,47.78
2023-02-11T08:16:09.851Z,46.83
2023-02-11T08:18:36.917Z,44.97
2023-02-11T08:21:08.058Z,45.22
2023-02-11T08:23:38.531Z,44.08
2023-02-11T08:26:08.132Z,44.88
2023-02-11T08:28:39.833Z,42.88
2023-02-11T08:31:08.344Z,45.22
2023-02-11T08:33:35.540Z,44.05
2023-02-11T08:36:07.685Z,43.25
2023-02-11T08:38:34.416Z,40.80
2023-02-11T08:41:01.263Z,43.15
2023-02-11T08:43:27.884Z,46.55
2023-02-11T08:45:54.643Z,42.25
2023-02-11T08:48:21.269Z,42.38
2023-02-11T08:50:47.871Z,42.88
2023-02-11T08:53:14.451Z,42.17
2023-02-11T08:55:41.107Z,40.63
2023-02-11T08:58:07.731Z,41.40
2023-02-11T09:00:34.341Z,43.25
2023-02-11T09:03:01.409Z,44.95
2023-02-11T09:05:28.066Z,44.28
2023-02-11T09:07:54.631Z,42.45
2023-02-11T09:10:21.263Z,41.78
2023-02-11T09:12:47.901Z,45.97
2023-02-11T09:15:14.517Z,44.33
2023-02-11T09:17:41.125Z,43.33
2023-02-11T09:20:10.695Z,43.83
2023-02-11T09:25:04.042Z,43.55
2023-02-11T09:27:30.621Z,42.40
2023-02-11T09:29:57.311Z,41.22
2023-02-11T09:32:24.048Z,40.88
2023-02-11T09:34:50.794Z,40.50
2023-02-11T09:37:17.416Z,42.38
2023-02-11T09:39:46.122Z,40.85
2023-02-11T09:42:43.783Z,43.47
2023-02-11T09:45:25.988Z,41.00
2023-02-11T09:48:10.501Z,42.13
2023-02-11T09:50:41.779Z,41.63
2023-02-11T09:53:23.392Z,41.55
2023-02-11T09:55:55.716Z,43.28
2023-02-11T09:58:34.579Z,41.10
2023-02-11T10:01:12.700Z,38.20
2023-02-11T10:03:42.090Z,38.70
2023-02-11T10:06:20.982Z,38.67
2023-02-11T10:09:28.047Z,40.13
2023-02-11T10:12:19.459Z,39.00
2023-02-11T10:15:16.814Z,39.20
2023-02-11T10:18:12.305Z,36.70
2023-02-11T10:20:50.859Z,38.50
2023-02-11T10:23:25.757Z,36.00
2023-02-11T10:25:54.517Z,37.80
2023-02-11T10:28:29.770Z,39.33
2023-02-11T10:31:08.617Z,37.88
2023-02-11T10:33:56.440Z,38.53
2023-02-11T10:36:30.776Z,39.28
2023-02-11T10:39:02.548Z,40.45
2023-02-11T10:41:36.753Z,40.00
2023-02-11T10:44:07.146Z,39.80
2023-02-11T10:46:38.084Z,40.03
2023-02-11T10:49:04.704Z,39.53
2023-02-11T10:51:34.267Z,40.15
2023-02-11T10:54:04.068Z,39.63
2023-02-11T10:56:33.863Z,40.30
2023-02-11T10:59:04.507Z,39.67
2023-02-11T11:01:45.128Z,38.70
2023-02-11T11:04:30.017Z,38.10
2023-02-11T11:06:58.915Z,38.40
2023-02-11T11:09:33.082Z,37.03
2023-02-11T11:11:59.781Z,38.75
2023-02-11T11:14:28.990Z,36.33
2023-02-11T11:16:55.847Z,33.28
2023-02-11T11:19:24.766Z,37.40
2023-02-11T11:21:53.665Z,38.47
2023-02-11T11:24:29.377Z,36.22
2023-02-11T11:27:01.450Z,38.30
2023-02-11T11:29:38.503Z,38.88
2023-02-11T11:32:20.672Z,39.85
2023-02-11T11:34:56.789Z,37.25
2023-02-11T11:37:31.707Z,35.03
2023-02-11T11:40:09.569Z,36.95
2023-02-11T11:42:38.725Z,37.47
2023-02-11T11:45:20.090Z,38.92
2023-02-11T11:47:52.565Z,36.53
2023-02-11T11:50:43.338Z,37.15
2023-02-11T11:53:21.207Z,37.78
2023-02-11T11:55:59.383Z,37.17
2023-02-11T11:58:29.186Z,37.28
2023-02-11T12:01:20.483Z,37.53
2023-02-11T12:04:08.851Z,37.53
2023-02-11T12:06:55.662Z,33.80
2023-02-11T12:09:46.667Z,36.05
2023-02-11T12:12:41.173Z,33.42
2023-02-11T12:15:28.808Z,36.90
2023-02-11T12:18:17.843Z,37.33
2023-02-11T12:21:09.032Z,39.88
2023-02-11T12:23:47.395Z,36.45
2023-02-11T12:26:20.468Z,35.47
2023-02-11T12:29:05.726Z,37.58
2023-02-11T12:31:47.017Z,35.92
2023-02-11T12:34:56.741Z,34.60
2023-02-11T12:40:02.065Z,32.35
2023-02-11T12:43:08.808Z,33.47
2023-02-11T12:45:51.985Z,33.45
2023-02-11T12:48:33.593Z,35.05
2023-02-11T12:51:16.450Z,31.92
2023-02-11T12:53:48.664Z,33.58
2023-02-11T12:56:26.416Z,33.10
2023-02-11T12:58:56.105Z,33.38
2023-02-11T13:04:23.908Z,32.63
2023-02-11T13:06:58.924Z,33.80
2023-02-11T13:09:32.434Z,34.20
2023-02-11T13:12:23.659Z,32.90
2023-02-11T13:14:54.091Z,33.72
2023-02-11T13:17:36.093Z,34.30
2023-02-11T13:20:52.154Z,30.98
2023-02-11T13:23:31.517Z,32.55
2023-02-11T13:26:09.948Z,32.50
2023-02-11T13:28:50.391Z,32.08
2023-02-11T13:31:20.183Z,33.50
2023-02-11T13:33:49.585Z,33.10
2023-02-11T13:36:22.177Z,32.88
2023-02-11T13:39:04.377Z,30.85
2023-02-11T13:41:38.303Z,31.70
2023-02-11T13:44:19.195Z,33.08
2023-02-11T13:47:04.970Z,33.25
2023-02-11T13:49:33.433Z,33.92
2023-02-11T13:52:03.341Z,33.85
2023-02-11T13:54:38.995Z,34.97
2023-02-11T13:57:19.702Z,32.60
2023-02-11T13:59:52.344Z,33.03
2023-02-11T14:02:50.296Z,32.92
2023-02-11T14:05:49.014Z,34.97
2023-02-11T14:08:40.187Z,33.87
2023-02-11T14:11:29.901Z,32.88
2023-02-11T14:17:01.350Z,35.30
2023-02-11T14:22:06.336Z,32.20
2023-02-11T14:24:32.912Z,35.38
2023-02-11T14:27:09.874Z,39.08
2023-02-11T14:29:46.909Z,37.40
2023-02-11T14:32:27.244Z,34.58
2023-02-11T14:35:07.787Z,34.70
2023-02-11T14:38:12.580Z,32.45
2023-02-11T14:41:01.865Z,32.17
2023-02-11T14:43:35.083Z,29.50
2023-02-11T14:46:02.949Z,31.02
2023-02-11T14:48:35.093Z,31.13
2023-02-11T14:51:14.689Z,30.83
2023-02-11T14:56:26.289Z,30.10
2023-02-11T14:58:54.835Z,31.15
2023-02-11T15:01:46.955Z,28.25
2023-02-11T15:04:26.201Z,28.42
2023-02-11T15:06:55.039Z,27.75
2023-02-11T15:09:37.166Z,27.23
2023-02-11T15:12:04.118Z,24.95
2023-02-11T15:14:33.679Z,26.63
2023-02-11T15:17:04.253Z,25.50
2023-02-11T15:19:39.909Z,27.15
2023-02-11T15:22:18.401Z,25.63
2023-02-11T15:24:45.530Z,27.70
2023-02-11T15:27:15.450Z,25.13
2023-02-11T15:29:49.122Z,25.00
2023-02-11T15:32:18.514Z,23.65
2023-02-11T15:34:46.923Z,23.70
2023-02-11T15:37:22.248Z,23.30
2023-02-11T15:39:49.328Z,22.67
2023-02-11T15:42:17.124Z,22.95
2023-02-11T15:44:43.966Z,21.58
2023-02-11T15:47:18.673Z,20.23
2023-02-11T15:49:46.812Z,21.88
2023-02-11T15:52:21.503Z,21.77
2023-02-11T15:54:49.308Z,21.25
2023-02-11T15:57:17.759Z,21.85
2023-02-11T15:59:51.970Z,21.85
2023-02-11T16:02:22.127Z,21.83
2023-02-11T16:04:51.793Z,21.10
2023-02-11T16:10:18.155Z,23.38
2023-02-11T16:13:18.757Z,21.45
2023-02-11T16:15:56.734Z,21.77
2023-02-11T16:18:37.696Z,21.45
2023-02-11T16:21:15.825Z,21.88
2023-02-11T16:23:43.274Z,24.08
2023-02-11T16:26:27.261Z,23.02
2023-02-11T16:29:01.614Z,21.88
2023-02-11T16:31:37.276Z,22.38
2023-02-11T16:34:19.828Z,21.73
2023-02-11T16:36:47.402Z,22.30
2023-02-11T16:39:14.461Z,22.25
2023-02-11T16:41:41.198Z,22.83
2023-02-11T16:44:07.940Z,23.88
2023-02-11T16:46:36.344Z,24.88
2023-02-11T16:49:18.052Z,22.15
2023-02-11T16:51:46.549Z,22.70
2023-02-11T16:54:15.151Z,22.65
2023-02-11T16:56:42.557Z,23.10
2023-02-11T16:59:09.765Z,24.92
2023-02-11T17:01:38.974Z,22.38
2023-02-11T17:04:06.985Z,21.95
2023-02-11T17:06:34.894Z,21.30
2023-02-11T17:09:01.684Z,22.08
2023-02-11T17:11:28.352Z,25.50
2023-02-11T17:13:55.138Z,23.23
2023-02-11T17:16:23.314Z,22.13
2023-02-11T17:18:50.457Z,28.63
2023-02-11T17:21:17.231Z,22.27
2023-02-11T17:23:45.788Z,25.75
2023-02-11T17:26:12.454Z,30.98
2023-02-11T17:28:39.071Z,21.63
2023-02-11T17:31:09.783Z,26.67
2023-02-11T17:33:37.798Z,24.27
2023-02-11T17:36:09.518Z,25.08
2023-02-11T17:38:37.977Z,20.40
2023-02-11T17:41:05.451Z,27.38
2023-02-11T17:43:32.196Z,22.58
2023-02-11T17:45:58.828Z,24.80
2023-02-11T17:48:25.696Z,24.15
2023-02-11T17:50:52.420Z,25.30
2023-02-11T17:53:18.992Z,25.15
2023-02-11T17:55:45.702Z,25.05
2023-02-11T17:58:12.334Z,24.38
2023-02-11T18:00:39.087Z,28.80
2023-02-11T18:03:05.657Z,22.17
2023-02-11T18:05:36.970Z,23.48
2023-02-11T18:08:07.906Z,24.63
2023-02-11T18:10:35.603Z,23.25
2023-02-11T18:13:02.401Z,25.40
2023-02-11T18:15:29.067Z,24.00
2023-02-11T18:17:55.959Z,24.33
2023-02-11T18:20:22.745Z,23.95
2023-02-11T18:22:49.499Z,27.30
2023-02-11T18:25:16.424Z,25.02
2023-02-11T18:27:43.365Z,25.75
2023-02-11T18:30:16.977Z,24.70
2023-02-11T18:32:43.672Z,25.27
2023-02-11T18:35:14.849Z,29.13
2023-02-11T18:37:42.721Z,27.25
2023-02-11T18:40:11.447Z,28.02
2023-02-11T18:42:38.872Z,27.33
2023-02-11T18:45:09.368Z,27.90
2023-02-11T18:47:39.617Z,27.67
2023-02-11T18:50:08.204Z,27.13
2023-02-11T18:52:38.108Z,27.38
2023-02-11T18:55:06.307Z,27.65
2023-02-11T18:57:32.995Z,27.42
2023-02-11T18:59:59.786Z,30.45
2023-02-11T19:02:26.897Z,27.73
2023-02-11T19:04:53.517Z,26.63
2023-02-11T19:07:20.156Z,26.15
2023-02-11T19:09:46.873Z,27.40
2023-02-11T19:12:13.495Z,25.70
2023-02-11T19:14:40.159Z,24.02
2023-02-11T19:17:08.065Z,24.48
2023-02-11T19:19:36.433Z,24.13
2023-02-11T19:22:08.497Z,22.63
2023-02-11T19:24:37.210Z,22.98
2023-02-11T19:27:04.537Z,23.70
2023-02-11T19:29:33.474Z,24.58
2023-02-11T19:32:00.176Z,23.88
2023-02-11T19:34:26.912Z,23.23
2023-02-11T19:36:54.291Z,23.50
2023-02-11T19:39:21.341Z,21.65
2023-02-11T19:41:48.043Z,24.33
2023-02-11T19:44:14.736Z,26.55
2023-02-11T19:46:41.556Z,25.83
2023-02-11T19:49:09.810Z,29.95
2023-02-11T19:51:39.157Z,24.90
2023-02-11T19:54:07.240Z,26.13
2023-02-11T19:56:34.269Z,30.80
2023-02-11T19:59:03.522Z,39.47
2023-02-11T20:01:30.320Z,47.63
2023-02-11T20:03:57.708Z,41.65
2023-02-11T20:06:30.278Z,35.58
2023-02-11T20:09:00.123Z,29.55
2023-02-11T20:11:29.066Z,25.83
2023-02-11T20:13:56.883Z,24.50
2023-02-11T20:16:40.643Z,29.35
2023-02-11T20:19:07.797Z,29.98
2023-02-11T20:21:34.436Z,27.30
2023-02-11T20:24:01.225Z,27.27
2023-02-11T20:26:30.124Z,32.85
2023-02-11T20:28:58.819Z,29.52
2023-02-11T20:31:26.689Z,23.00
2023-02-11T20:33:53.441Z,20.08
2023-02-11T20:36:23.612Z,21.73
2023-02-11T20:38:51.357Z,44.65
2023-02-11T20:41:20.747Z,29.23
2023-02-11T20:43:51.889Z,24.20
2023-02-11T20:46:21.514Z,23.20
2023-02-11T20:51:17.710Z,29.23
2023-02-11T20:53:48.726Z,29.50
2023-02-11T20:56:16.150Z,26.75
2023-02-11T20:58:43.191Z,28.90
2023-02-11T21:01:13.961Z,29.42
2023-02-11T21:03:43.672Z,26.85
2023-02-11T21:08:38.302Z,22.88
2023-02-11T21:11:09.394Z,22.40
2023-02-11T21:13:37.407Z,21.65
2023-02-11T21:16:04.774Z,22.38
2023-02-11T21:18:31.673Z,26.70
2023-02-11T21:20:58.410Z,23.23
2023-02-11T21:23:25.394Z,27.95
2023-02-11T21:25:53.785Z,21.30
2023-02-11T21:28:26.040Z,23.00
2023-02-11T21:30:55.573Z,22.98
2023-02-11T21:33:23.705Z,25.35
2023-02-11T21:35:54.718Z,27.02
2023-02-11T21:38:22.140Z,25.95
2023-02-11T21:40:48.810Z,27.38
2023-02-11T21:43:15.683Z,26.10
2023-02-11T21:45:43.980Z,26.85
2023-02-11T21:48:11.196Z,24.13
2023-02-11T21:50:45.812Z,27.15
2023-02-11T21:53:13.637Z,29.05
2023-02-11T21:55:41.094Z,27.48
2023-02-11T21:58:08.421Z,25.25
2023-02-11T22:00:35.437Z,24.98
2023-02-11T22:03:02.203Z,24.60
2023-02-11T22:05:28.889Z,23.77
2023-02-11T22:07:55.677Z,27.50
2023-02-11T22:10:22.600Z,25.88
2023-02-11T22:12:49.353Z,25.30
2023-02-11T22:15:16.140Z,29.15
2023-02-11T22:17:42.732Z,27.48
2023-02-11T22:20:10.177Z,40.63
2023-02-11T22:22:36.892Z,36.50
2023-02-11T22:25:04.039Z,23.77
2023-02-11T22:27:30.841Z,24.10
2023-02-11T22:29:57.505Z,27.08
2023-02-11T22:32:24.197Z,25.33
2023-02-11T22:34:53.202Z,24.63
2023-02-11T22:37:20.349Z,25.83
2023-02-11T22:39:47.069Z,26.42
2023-02-11T22:42:13.671Z,25.05
2023-02-11T22:44:40.265Z,25.08
2023-02-11T22:47:07.082Z,25.33
2023-02-11T22:49:33.743Z,24.33
2023-02-11T22:52:00.458Z,26.27
2023-02-11T22:54:27.484Z,27.27
2023-02-11T22:56:54.163Z,28.27
2023-02-11T22:59:20.809Z,28.08
2023-02-11T23:01:47.877Z,23.83
2023-02-11T23:04:15.891Z,23.70
2023-02-11T23:06:42.852Z,24.40
2023-02-11T23:09:12.407Z,23.40
2023-02-11T23:14:05.902Z,24.02
2023-02-11T23:16:34.089Z,25.73
2023-02-11T23:19:03.547Z,24.98
2023-02-11T23:21:32.100Z,23.55
2023-02-11T23:24:04.993Z,24.85
2023-02-11T23:26:32.054Z,26.58
2023-02-11T23:28:59.622Z,26.48
2023-02-11T23:31:34.129Z,26.00
2023-02-11T23:34:01.451Z,28.25
2023-02-11T23:36:28.343Z,28.48
2023-02-11T23:38:55.220Z,27.05
2023-02-11T23:41:22.721Z,29.45
2023-02-11T23:43:54.224Z,29.00
2023-02-11T23:46:22.182Z,30.52
2023-02-11T23:48:49.653Z,33.50
2023-02-11T23:51:16.734Z,32.53
2023-02-11T23:53:45.796Z,35.63
2023-02-11T23:56:19.057Z,33.22
2023-02-11T23:58:48.979Z,33.67
